Isabella, Minnesota
Current Conditions -  °F | °C
As of 1:14 PM on Sunday 23 Nov 2014 (Local Time) from KBFW Reporting Station
Haze Haze  
Wind Chill: 41°   Ceiling: 600
Heat Index: 41°   Visibility: 3mi
Dew Point: 39°   Wind: 0mph
Humidity: 93%   Direction: NA
Pressure: 29.37"   Gusts: NA
Location:  47.62°N, 91.36°W
Report Text: KBFW 231914Z AUTO 00000KT 3SM BR OVC006 05/04 A2937 RMK AO2
Loading
Personal Weather Stations






























Interactive Weather Map New forecast layout! Learn more

10-Day Weather Forecast

Advertisements
Track Severe Weather on mobile